Time;durP1;ratioP1;P1;durP2;ratioP2;P2;SDS_P1;SDS_P2;PMS_P1;PMS_P2;Temp;Humidity;BMP_temperature;BMP_pressure;BME280_temperature;BME280_humidity;BME280_pressure;Samples;Min_cycle;Max_cycle;Signal;HPM_P1;HPM_P2
2022/04/20 00:01:42;;;;;;;9.98;3.85;;;7.50;99.90;;;;;;5054402;28;20500;-84
2022/04/20 00:04:09;;;;;;;10.95;3.75;;;7.50;99.90;;;;;;5037539;28;20392;-84
2022/04/20 00:06:35;;;;;;;9.30;3.22;;;7.40;99.90;;;;;;5036966;28;20049;-83
2022/04/20 00:09:01;;;;;;;10.15;3.72;;;7.40;99.90;;;;;;5054419;28;20064;-84
2022/04/20 00:11:26;;;;;;;10.07;3.90;;;7.30;99.90;;;;;;5037225;28;20043;-84
2022/04/20 00:13:52;;;;;;;9.77;3.90;;;7.30;99.90;;;;;;5054815;28;20485;-84
2022/04/20 00:16:17;;;;;;;11.53;4.00;;;7.30;99.90;;;;;;5054627;28;20481;-84
2022/04/20 00:18:43;;;;;;;11.65;3.95;;;7.20;99.90;;;;;;5036991;28;20055;-84
2022/04/20 00:21:08;;;;;;;11.67;4.40;;;7.20;99.90;;;;;;5053717;28;20501;-83
2022/04/20 00:23:34;;;;;;;11.43;4.40;;;7.20;99.90;;;;;;5036716;28;20136;-83
2022/04/20 00:26:00;;;;;;;11.50;3.97;;;7.10;99.90;;;;;;5036825;28;20041;-83
2022/04/20 00:28:25;;;;;;;11.63;4.15;;;7.00;99.90;;;;;;5053993;28;20063;-84
2022/04/20 00:30:51;;;;;;;11.60;4.20;;;7.00;99.90;;;;;;5054381;28;20037;-83
2022/04/20 00:33:16;;;;;;;10.93;4.17;;;7.00;99.90;;;;;;5054833;28;20049;-84
2022/04/20 00:35:43;;;;;;;10.98;4.13;;;6.90;99.90;;;;;;5053830;28;20098;-83
2022/04/20 00:38:09;;;;;;;12.40;4.10;;;6.90;99.90;;;;;;5036857;28;20167;-84
2022/04/20 00:40:35;;;;;;;14.25;4.50;;;6.90;99.90;;;;;;5036994;28;20060;-83
2022/04/20 00:43:00;;;;;;;9.98;4.18;;;6.90;99.90;;;;;;5053727;28;20056;-83
2022/04/20 00:45:28;;;;;;;10.43;4.22;;;6.80;99.90;;;;;;5054474;28;20041;-84
2022/04/20 00:47:55;;;;;;;11.87;4.13;;;6.80;99.90;;;;;;5053927;28;20403;-84
2022/04/20 00:50:22;;;;;;;10.10;4.13;;;6.70;99.90;;;;;;5053654;28;20040;-83
2022/04/20 00:52:48;;;;;;;13.07;4.30;;;6.60;99.90;;;;;;5054085;28;20116;-83
2022/04/20 00:55:14;;;;;;;11.95;4.78;;;6.60;99.90;;;;;;5054060;28;20445;-83
2022/04/20 00:57:39;;;;;;;11.90;4.97;;;6.60;99.90;;;;;;5053514;28;20369;-83
2022/04/20 01:00:05;;;;;;;10.93;4.72;;;6.60;99.90;;;;;;5036202;28;20048;-83
2022/04/20 01:02:31;;;;;;;11.98;4.20;;;6.50;99.90;;;;;;5054041;28;20063;-83
2022/04/20 01:04:57;;;;;;;11.35;4.55;;;6.50;99.90;;;;;;5035200;28;20048;-84
2022/04/20 01:07:23;;;;;;;11.23;4.30;;;6.50;99.90;;;;;;5036314;28;20045;-83
2022/04/20 01:09:49;;;;;;;12.10;4.50;;;6.50;99.90;;;;;;5036344;28;20072;-83
2022/04/20 01:12:16;;;;;;;12.00;4.50;;;6.50;99.90;;;;;;5053498;28;20047;-83
2022/04/20 01:14:42;;;;;;;11.18;4.18;;;6.40;99.90;;;;;;5036166;28;20091;-84
2022/04/20 01:17:08;;;;;;;13.50;4.80;;;6.40;99.90;;;;;;5036199;28;20053;-84
2022/04/20 01:19:39;;;;;;;10.75;5.03;;;6.40;99.90;;;;;;5053207;28;20084;-83
2022/04/20 01:22:08;;;;;;;11.40;4.40;;;6.40;99.90;;;;;;5035964;28;20589;-83
2022/04/20 01:24:36;;;;;;;16.33;4.93;;;6.40;99.90;;;;;;5053084;28;20049;-84
2022/04/20 01:27:02;;;;;;;11.10;4.63;;;6.30;99.90;;;;;;5053061;28;20404;-83
2022/04/20 01:29:28;;;;;;;11.15;4.60;;;6.30;99.90;;;;;;5053581;28;20124;-84
2022/04/20 01:31:55;;;;;;;10.48;4.47;;;6.30;99.90;;;;;;5034962;28;20445;-84
2022/04/20 01:34:21;;;;;;;11.63;4.80;;;6.20;99.90;;;;;;5053194;28;20511;-84
2022/04/20 01:36:50;;;;;;;12.70;4.28;;;6.20;99.90;;;;;;5035480;28;20041;-84
2022/04/20 01:39:16;;;;;;;10.93;4.40;;;6.20;99.90;;;;;;5052547;28;20045;-84
2022/04/20 01:41:43;;;;;;;12.70;4.88;;;6.20;99.90;;;;;;5052790;28;20051;-83
2022/04/20 01:44:09;;;;;;;11.63;4.70;;;6.10;99.90;;;;;;5018789;28;20048;-83
2022/04/20 01:46:35;;;;;;;11.02;4.70;;;6.10;99.90;;;;;;5052541;28;20092;-83
2022/04/20 01:49:02;;;;;;;11.45;4.78;;;6.00;99.90;;;;;;5052993;28;20083;-84
2022/04/20 01:54:12;;;;;;;11.25;4.57;;;6.00;99.90;;;;;;5034990;28;20072;-83
2022/04/20 01:56:38;;;;;;;12.15;4.78;;;6.00;99.90;;;;;;5052664;28;20068;-83
2022/04/20 01:59:03;;;;;;;11.55;4.68;;;5.90;99.90;;;;;;5034992;28;20041;-84
2022/04/20 02:04:13;;;;;;;12.02;4.72;;;5.90;99.90;;;;;;5014946;28;20057;-83
2022/04/20 02:06:39;;;;;;;11.32;4.88;;;5.90;99.90;;;;;;5031952;28;20068;-84
2022/04/20 02:09:05;;;;;;;12.38;4.55;;;5.80;99.90;;;;;;5015264;28;20081;-84
2022/04/20 02:11:30;;;;;;;12.60;5.18;;;5.80;99.90;;;;;;5031339;28;20493;-84
2022/04/20 02:13:57;;;;;;;11.30;4.70;;;5.70;99.90;;;;;;5031669;28;20050;-83
2022/04/20 02:16:23;;;;;;;11.88;4.75;;;5.70;99.90;;;;;;5032969;28;20053;-83
2022/04/20 02:18:49;;;;;;;12.25;5.05;;;5.70;99.90;;;;;;5031503;28;20060;-84
2022/04/20 02:21:14;;;;;;;13.27;4.90;;;5.70;99.90;;;;;;5030716;28;20053;-84
2022/04/20 02:23:40;;;;;;;12.80;5.15;;;5.60;99.90;;;;;;5032558;28;20046;-83
2022/04/20 02:26:06;;;;;;;11.15;4.80;;;5.60;99.90;;;;;;5033065;28;20091;-83
2022/04/20 02:28:31;;;;;;;10.77;4.85;;;5.60;99.90;;;;;;5032028;28;20512;-83
2022/04/20 02:30:57;;;;;;;12.20;4.97;;;5.50;99.90;;;;;;5032812;28;20037;-83
2022/04/20 02:33:22;;;;;;;12.53;4.93;;;5.50;99.90;;;;;;5033054;28;20393;-83
2022/04/20 02:35:48;;;;;;;11.30;4.87;;;5.50;99.90;;;;;;5013965;28;20507;-83
2022/04/20 02:38:15;;;;;;;11.80;4.82;;;5.50;99.90;;;;;;5032867;28;20053;-83
2022/04/20 02:40:41;;;;;;;11.93;5.07;;;5.50;99.90;;;;;;5032664;28;20041;-83
2022/04/20 02:43:07;;;;;;;15.55;6.18;;;5.50;99.90;;;;;;5032081;28;20046;-83
2022/04/20 02:45:33;;;;;;;12.75;5.10;;;5.40;99.90;;;;;;5031688;28;20049;-83
2022/04/20 02:48:00;;;;;;;13.93;5.50;;;5.40;99.90;;;;;;5032217;28;20053;-83
2022/04/20 02:50:27;;;;;;;11.80;5.20;;;5.40;99.90;;;;;;5031861;28;20045;-83
2022/04/20 02:52:53;;;;;;;14.60;5.50;;;5.30;99.90;;;;;;5014625;28;20054;-83
2022/04/20 02:55:19;;;;;;;11.93;4.90;;;5.30;99.90;;;;;;5031253;28;20124;-83
2022/04/20 02:57:45;;;;;;;15.75;5.68;;;5.30;99.90;;;;;;5031662;28;20091;-83
2022/04/20 03:00:11;;;;;;;14.30;5.70;;;5.20;99.90;;;;;;5032357;28;20552;-83
2022/04/20 03:02:36;;;;;;;12.57;5.25;;;5.20;99.90;;;;;;5024558;28;20045;-83
2022/04/20 03:05:02;;;;;;;14.87;5.60;;;5.10;99.90;;;;;;5031615;28;20056;-83
2022/04/20 03:07:28;;;;;;;12.03;5.07;;;5.10;99.90;;;;;;5032470;28;20077;-83
2022/04/20 03:09:53;;;;;;;11.63;5.17;;;5.10;99.90;;;;;;5033290;28;20077;-83
2022/04/20 03:12:19;;;;;;;12.67;5.10;;;5.10;99.90;;;;;;5018301;28;20049;-83
2022/04/20 03:14:44;;;;;;;12.00;5.30;;;5.00;99.90;;;;;;5035849;28;20206;-83
2022/04/20 03:17:10;;;;;;;12.90;5.20;;;5.00;99.90;;;;;;5017887;28;20132;-83
2022/04/20 03:19:36;;;;;;;12.90;4.93;;;5.00;99.90;;;;;;5036414;28;20099;-83
2022/04/20 03:22:02;;;;;;;11.03;5.10;;;5.00;99.90;;;;;;5034440;28;20412;-83
2022/04/20 03:24:27;;;;;;;11.90;5.10;;;4.90;99.90;;;;;;5035542;28;20044;-83
2022/04/20 03:26:53;;;;;;;12.30;4.77;;;4.90;99.90;;;;;;5035850;28;20402;-83
2022/04/20 03:29:18;;;;;;;12.27;5.53;;;4.90;99.90;;;;;;5036360;28;20042;-83
2022/04/20 03:31:44;;;;;;;12.63;5.30;;;4.90;99.90;;;;;;5035092;28;20152;-84
2022/04/20 03:34:11;;;;;;;12.37;5.30;;;4.90;99.90;;;;;;5036110;28;20072;-83
2022/04/20 03:36:37;;;;;;;12.97;5.70;;;4.80;99.90;;;;;;5035553;28;20065;-83
2022/04/20 03:39:03;;;;;;;15.40;5.87;;;4.80;99.90;;;;;;5034879;28;20135;-83
2022/04/20 03:41:28;;;;;;;13.60;5.70;;;4.80;99.90;;;;;;5035564;28;20151;-83
2022/04/20 03:43:54;;;;;;;13.90;5.23;;;4.70;99.90;;;;;;5017683;28;20077;-83
2022/04/20 03:46:21;;;;;;;11.97;5.23;;;4.70;99.90;;;;;;5017328;28;20386;-84
2022/04/20 03:48:47;;;;;;;11.57;5.17;;;4.70;99.90;;;;;;5035148;28;20056;-83
2022/04/20 03:51:13;;;;;;;11.97;5.27;;;4.70;99.90;;;;;;5035442;28;20045;-83
2022/04/20 03:53:41;;;;;;;12.05;5.45;;;4.70;99.90;;;;;;5017121;28;20139;-84
2022/04/20 03:56:06;;;;;;;13.30;5.30;;;4.60;99.90;;;;;;5035520;28;20128;-83
2022/04/20 03:58:32;;;;;;;13.57;5.70;;;4.60;99.90;;;;;;5035598;28;20125;-84
2022/04/20 04:00:58;;;;;;;13.47;4.97;;;4.60;99.90;;;;;;5032233;28;20408;-84
2022/04/20 04:03:23;;;;;;;13.63;5.70;;;4.60;99.90;;;;;;5021943;28;20128;-83
2022/04/20 04:05:49;;;;;;;11.07;4.70;;;4.60;99.90;;;;;;5054199;28;20032;-83
2022/04/20 04:08:14;;;;;;;11.90;5.13;;;4.60;99.90;;;;;;5053930;28;20049;-84
2022/04/20 04:10:40;;;;;;;12.07;5.50;;;4.60;99.90;;;;;;5054895;28;20084;-83
2022/04/20 04:13:06;;;;;;;12.93;5.20;;;4.60;99.90;;;;;;5037553;28;20052;-85
2022/04/20 04:15:33;;;;;;;13.30;5.10;;;4.60;99.90;;;;;;5054371;28;20073;-85
2022/04/20 04:17:59;;;;;;;12.53;5.43;;;4.60;99.90;;;;;;5036817;28;20473;-85
2022/04/20 04:20:28;;;;;;;11.80;5.40;;;4.50;99.90;;;;;;5053856;28;20068;-85
2022/04/20 04:22:54;;;;;;;11.23;4.90;;;4.50;99.90;;;;;;5054419;28;20052;-86
2022/04/20 04:25:20;;;;;;;12.27;5.33;;;4.50;99.90;;;;;;5055134;28;20124;-84
2022/04/20 04:27:47;;;;;;;12.63;5.67;;;4.50;99.90;;;;;;5035776;28;20053;-84
2022/04/20 04:30:13;;;;;;;12.90;5.80;;;4.50;99.90;;;;;;5036700;28;20049;-84
2022/04/20 04:32:38;;;;;;;12.83;5.37;;;4.40;99.90;;;;;;5054640;28;20045;-84
2022/04/20 04:35:05;;;;;;;12.03;5.50;;;4.40;99.90;;;;;;5053910;28;20049;-83
2022/04/20 04:37:31;;;;;;;14.50;5.90;;;4.40;99.90;;;;;;5054684;28;20045;-83
2022/04/20 04:39:56;;;;;;;15.47;5.60;;;4.40;99.90;;;;;;5036512;28;20086;-83
2022/04/20 04:42:22;;;;;;;12.87;5.40;;;4.40;99.90;;;;;;5035773;28;20045;-84
2022/04/20 04:44:48;;;;;;;11.63;5.27;;;4.40;99.90;;;;;;5054625;28;20042;-84
2022/04/20 04:49:58;;;;;;;13.75;5.72;;;4.40;99.90;;;;;;5035237;28;20475;-83
2022/04/20 04:52:23;;;;;;;14.03;6.10;;;4.40;99.90;;;;;;5054150;28;20126;-83
2022/04/20 04:54:49;;;;;;;12.63;5.70;;;4.40;99.90;;;;;;5036326;28;20041;-83
2022/04/20 04:57:14;;;;;;;13.70;5.73;;;4.40;99.90;;;;;;5006948;28;20517;-83
2022/04/20 04:59:41;;;;;;;13.37;6.17;;;4.40;99.90;;;;;;4997013;28;20038;-83
2022/04/20 05:02:08;;;;;;;13.73;5.97;;;4.40;99.90;;;;;;4996857;28;20058;-83
2022/04/20 05:04:35;;;;;;;11.97;5.80;;;4.50;99.90;;;;;;4996316;28;20042;-84
2022/04/20 05:07:01;;;;;;;14.30;6.27;;;4.40;99.90;;;;;;5014087;28;20112;-83
2022/04/20 05:09:27;;;;;;;13.13;5.60;;;4.50;99.90;;;;;;5014642;28;20481;-84
2022/04/20 05:11:53;;;;;;;13.73;5.80;;;4.50;99.90;;;;;;5013836;28;20038;-87
2022/04/20 05:14:19;;;;;;;14.60;6.33;;;4.50;99.90;;;;;;5002588;28;20037;-86
2022/04/20 05:16:44;;;;;;;14.80;6.45;;;4.60;99.90;;;;;;5015426;28;20104;-90
2022/04/20 05:19:10;;;;;;;14.65;5.80;;;4.60;99.90;;;;;;4998561;28;20437;-87
2022/04/20 05:21:36;;;;;;;12.63;5.93;;;4.60;99.90;;;;;;5019907;28;20045;-88
2022/04/20 05:24:02;;;;;;;12.17;5.90;;;4.70;99.90;;;;;;5013056;28;20048;-88
2022/04/20 05:26:28;;;;;;;13.27;5.90;;;4.70;99.90;;;;;;5014280;28;20033;-88
2022/04/20 05:28:53;;;;;;;12.00;6.23;;;4.80;99.90;;;;;;4999793;28;20500;-87
2022/04/20 05:31:20;;;;;;;12.50;6.17;;;4.90;99.90;;;;;;5013740;28;20037;-87
2022/04/20 05:33:45;;;;;;;12.98;6.13;;;4.90;99.90;;;;;;4995616;28;20054;-88
2022/04/20 05:36:13;;;;;;;12.90;5.65;;;4.90;99.90;;;;;;5014113;28;20048;-86
2022/04/20 05:41:41;;;;;;;13.25;5.70;;;5.10;99.90;;;;;;5013859;28;20498;-86
2022/04/20 05:44:11;;;;;;;12.15;6.50;;;5.10;99.90;;;;;;5014092;28;20085;-87
2022/04/20 05:46:37;;;;;;;13.70;6.22;;;5.20;99.90;;;;;;4995559;28;20129;-86
2022/04/20 05:49:03;;;;;;;14.47;6.20;;;5.30;99.90;;;;;;5013734;28;20048;-85
2022/04/20 05:51:29;;;;;;;12.98;5.75;;;5.30;99.90;;;;;;4995906;28;20511;-86
2022/04/20 05:53:55;;;;;;;11.88;6.13;;;5.40;99.90;;;;;;4994895;28;20525;-86
2022/04/20 05:56:20;;;;;;;12.85;5.78;;;5.50;99.90;;;;;;5013338;28;20057;-86
2022/04/20 05:58:50;;;;;;;13.20;6.13;;;5.60;99.90;;;;;;5023254;28;20033;-85
2022/04/20 06:01:16;;;;;;;13.60;6.07;;;5.60;99.90;;;;;;5047492;28;20080;-85
2022/04/20 06:03:42;;;;;;;12.48;6.00;;;5.70;99.90;;;;;;5034597;28;20048;-85
2022/04/20 06:06:07;;;;;;;12.57;5.87;;;5.80;99.90;;;;;;5052044;28;20107;-85
2022/04/20 06:08:33;;;;;;;13.30;6.57;;;5.90;99.90;;;;;;5035343;28;20128;-83
2022/04/20 06:10:59;;;;;;;11.97;5.60;;;6.00;99.90;;;;;;5034655;28;20662;-85
2022/04/20 06:13:25;;;;;;;14.63;5.63;;;6.10;99.90;;;;;;5034455;28;20099;-86
2022/04/20 06:15:52;;;;;;;11.57;5.80;;;6.20;99.90;;;;;;5035223;28;20052;-86
2022/04/20 06:18:18;;;;;;;14.30;5.50;;;6.30;99.90;;;;;;5035178;28;20068;-89
2022/04/20 06:20:43;;;;;;;11.10;5.13;;;6.40;99.90;;;;;;5051874;28;20077;-86
2022/04/20 06:23:09;;;;;;;12.80;5.93;;;6.50;99.90;;;;;;5034852;28;20090;-88
2022/04/20 06:25:34;;;;;;;11.05;5.88;;;6.60;99.90;;;;;;5052625;28;20045;-86
2022/04/20 06:28:01;;;;;;;13.77;5.90;;;6.60;99.90;;;;;;5051651;28;20464;-85
2022/04/20 06:30:26;;;;;;;12.13;5.28;;;6.70;99.90;;;;;;5052677;28;20450;-85
2022/04/20 06:32:55;;;;;;;13.57;5.80;;;6.80;99.90;;;;;;5053263;28;20041;-85
2022/04/20 06:35:20;;;;;;;11.50;5.30;;;6.90;99.90;;;;;;5052123;28;20107;-85
2022/04/20 06:37:47;;;;;;;11.38;5.38;;;7.00;99.90;;;;;;5052408;28;20469;-87
2022/04/20 06:40:12;;;;;;;10.93;5.40;;;7.00;99.90;;;;;;5034714;28;20134;-87
2022/04/20 06:42:39;;;;;;;11.35;5.22;;;7.10;99.90;;;;;;5021819;28;20088;-87
2022/04/20 06:45:05;;;;;;;13.50;5.82;;;7.10;99.90;;;;;;5026781;28;20041;-87
2022/04/20 06:47:33;;;;;;;10.82;5.30;;;7.30;99.90;;;;;;5023124;28;20068;-87
2022/04/20 06:49:59;;;;;;;12.20;5.67;;;7.40;99.90;;;;;;5037634;28;20772;-86
2022/04/20 07:00:37;;;;;;;;;;;7.80;99.90;;;;;;5021600;28;20076;-85
2022/04/20 07:03:03;;;;;;;11.85;5.00;;;7.90;99.90;;;;;;5037908;28;20022;-85
2022/04/20 07:05:29;;;;;;;13.38;5.00;;;8.00;99.90;;;;;;5039380;28;20137;-86
2022/04/20 07:07:55;;;;;;;12.23;5.25;;;8.10;99.90;;;;;;5020170;28;20548;-86
2022/04/20 07:10:20;;;;;;;11.48;5.60;;;8.20;99.90;;;;;;5038202;28;20045;-86
2022/04/20 07:12:46;;;;;;;11.25;5.07;;;8.30;99.90;;;;;;5038889;28;20051;-86
2022/04/20 07:15:11;;;;;;;10.60;4.82;;;8.40;99.90;;;;;;5021492;28;20087;-86
2022/04/20 07:17:37;;;;;;;10.50;4.63;;;8.60;99.90;;;;;;5020428;28;20045;-85
2022/04/20 07:20:03;;;;;;;9.73;4.43;;;8.70;99.90;;;;;;5010566;28;20053;-86
2022/04/20 07:22:29;;;;;;;10.60;4.85;;;8.80;99.90;;;;;;5019385;28;20046;-86
2022/04/20 07:24:54;;;;;;;12.02;5.80;;;8.90;99.90;;;;;;5017439;28;20129;-86
2022/04/20 07:27:20;;;;;;;11.82;4.97;;;9.00;99.90;;;;;;5018765;28;20141;-86
2022/04/20 07:29:46;;;;;;;14.05;4.50;;;9.10;99.90;;;;;;5018728;28;20038;-86
2022/04/20 07:32:11;;;;;;;9.93;4.47;;;9.30;99.90;;;;;;5000768;28;20042;-86
2022/04/20 07:34:37;;;;;;;10.00;4.35;;;9.30;99.90;;;;;;5019096;28;20034;-85
2022/04/20 07:37:03;;;;;;;11.13;4.57;;;9.40;99.90;;;;;;5019579;28;20566;-88
2022/04/20 07:39:29;;;;;;;10.23;4.30;;;9.50;99.90;;;;;;5018153;28;20532;-82
2022/04/20 07:41:54;;;;;;;9.75;4.40;;;9.70;99.90;;;;;;5001031;28;20046;-82
2022/04/20 07:44:20;;;;;;;11.73;4.68;;;9.70;99.90;;;;;;5018218;28;20123;-82
2022/04/20 07:46:46;;;;;;;9.73;4.38;;;9.80;99.90;;;;;;5000835;28;20056;-83
2022/04/20 07:51:56;;;;;;;9.52;4.57;;;10.10;99.90;;;;;;5017394;28;20402;-82
2022/04/20 07:54:22;;;;;;;9.32;3.78;;;10.30;99.90;;;;;;5001512;28;20056;-82
2022/04/20 07:56:47;;;;;;;8.82;4.05;;;10.30;99.90;;;;;;5015128;28;20045;-82
2022/04/20 07:59:13;;;;;;;11.15;4.10;;;10.30;99.90;;;;;;4997316;28;20395;-84
2022/04/20 08:01:38;;;;;;;8.93;3.97;;;10.40;99.90;;;;;;4998250;28;20104;-84
2022/04/20 08:04:05;;;;;;;11.88;4.30;;;10.40;99.90;;;;;;5039793;28;20045;-85
2022/04/20 08:06:31;;;;;;;10.43;3.97;;;10.50;99.90;;;;;;5025388;28;20057;-85
2022/04/20 08:08:56;;;;;;;9.38;4.10;;;10.50;99.90;;;;;;5026941;28;20488;-85
2022/04/20 08:11:22;;;;;;;9.35;3.83;;;10.70;99.90;;;;;;5045129;28;20052;-86
2022/04/20 08:16:32;;;;;;;9.77;3.88;;;10.90;99.90;;;;;;5034818;28;20053;-84
2022/04/20 08:18:57;;;;;;;10.60;3.85;;;10.90;99.90;;;;;;5034695;28;20045;-85
2022/04/20 08:21:23;;;;;;;9.73;3.90;;;11.00;99.90;;;;;;5016401;28;20041;-86
2022/04/20 08:23:48;;;;;;;9.15;3.58;;;11.10;99.90;;;;;;5034874;28;20388;-86
2022/04/20 08:26:14;;;;;;;9.60;4.20;;;11.20;99.90;;;;;;5035134;28;20056;-85
2022/04/20 08:28:40;;;;;;;9.82;4.05;;;11.30;99.90;;;;;;5016163;28;20069;-85
2022/04/20 08:31:05;;;;;;;8.70;3.90;;;11.40;99.90;;;;;;5035012;28;20041;-85
2022/04/20 08:33:31;;;;;;;9.40;3.60;;;11.50;99.90;;;;;;5016616;28;20132;-85
2022/04/20 08:35:56;;;;;;;8.68;4.15;;;11.60;99.90;;;;;;5034543;28;20041;-85
2022/04/20 08:38:22;;;;;;;9.18;3.50;;;11.70;99.90;;;;;;5017380;28;20045;-85
2022/04/20 08:40:53;;;;;;;9.88;3.90;;;11.80;99.90;;;;;;5015921;28;20850;-85
2022/04/20 08:43:20;;;;;;;8.18;3.65;;;12.00;99.90;;;;;;5034664;28;20077;-85
2022/04/20 08:45:52;;;;;;;8.05;3.22;;;12.10;99.90;;;;;;5016254;28;20486;-85
2022/04/20 08:48:21;;;;;;;9.73;3.40;;;12.30;99.90;;;;;;5033309;28;20145;-85
2022/04/20 08:55:11;;;;;;;8.20;3.45;;;12.60;99.90;;;;;;5034537;28;20128;-86
2022/04/20 08:57:43;;;;;;;7.65;2.95;;;12.80;99.90;;;;;;5033758;28;20124;-86
2022/04/20 09:00:23;;;;;;;8.00;3.10;;;12.70;99.90;;;;;;5034581;28;20045;-86
2022/04/20 09:03:00;;;;;;;9.43;3.25;;;13.00;99.80;;;;;;5033046;28;20433;-85
2022/04/20 09:05:49;;;;;;;8.65;3.00;;;13.00;97.30;;;;;;5016502;28;20088;-85
2022/04/20 09:08:25;;;;;;;9.52;3.20;;;13.10;99.00;;;;;;5032495;28;20397;-83
2022/04/20 09:10:58;;;;;;;7.57;3.03;;;13.00;97.60;;;;;;5032777;28;20045;-84
2022/04/20 09:13:44;;;;;;;8.68;3.05;;;13.70;95.60;;;;;;5016175;28;20081;-85
2022/04/20 09:16:16;;;;;;;7.50;2.78;;;13.20;93.60;;;;;;5033554;28;20042;-86
2022/04/20 09:18:50;;;;;;;8.38;2.72;;;12.70;94.40;;;;;;5016156;28;20041;-85
2022/04/20 09:21:15;;;;;;;;;;;13.30;94.10;;;;;;5028020;22;20045;-86
2022/04/20 09:23:41;;;;;;;9.98;2.80;;;13.40;91.20;;;;;;5035150;28;20337;-84
2022/04/20 09:26:17;;;;;;;7.57;2.83;;;13.60;95.20;;;;;;5035865;28;20057;-84
2022/04/20 09:29:03;;;;;;;7.10;2.78;;;13.80;92.70;;;;;;5035922;28;20033;-83
2022/04/20 09:31:46;;;;;;;9.93;3.25;;;13.80;90.20;;;;;;5035222;28;20088;-84
2022/04/20 09:37:15;;;;;;;8.05;2.88;;;14.00;90.70;;;;;;5052641;28;20045;-83
2022/04/20 09:39:48;;;;;;;7.45;2.70;;;14.20;92.00;;;;;;5035676;28;20064;-86
2022/04/20 09:42:14;;;;;;;7.68;2.88;;;14.20;90.70;;;;;;5053458;28;20472;-86
2022/04/20 09:44:55;;;;;;;8.10;2.80;;;14.30;91.00;;;;;;5034608;28;20045;-86
2022/04/20 09:50:10;;;;;;;7.97;3.00;;;14.50;89.40;;;;;;5053522;28;20128;-85
2022/04/20 09:52:42;;;;;;;7.72;2.95;;;14.60;89.70;;;;;;5052636;28;20048;-86
2022/04/20 09:55:11;;;;;;;9.80;3.42;;;14.80;90.40;;;;;;5053031;28;20041;-86
2022/04/20 09:57:37;;;;;;;10.15;3.50;;;14.90;89.80;;;;;;5053431;28;20041;-86
2022/04/20 10:00:10;;;;;;;7.97;2.90;;;15.10;90.50;;;;;;5034367;28;20140;-85
2022/04/20 10:02:50;;;;;;;8.90;3.03;;;15.10;89.30;;;;;;5053200;28;20053;-85
2022/04/20 10:05:17;;;;;;;8.82;3.53;;;15.30;86.90;;;;;;5034627;28;20048;-87
2022/04/20 10:07:43;;;;;;;8.27;3.10;;;15.40;88.60;;;;;;5034904;28;20041;-84
2022/04/20 10:10:09;;;;;;;6.70;2.75;;;15.60;87.90;;;;;;5053253;28;20128;-86
2022/04/20 10:12:41;;;;;;;8.13;3.10;;;15.80;87.80;;;;;;5034367;28;20037;-82
2022/04/20 10:17:56;;;;;;;9.23;3.40;;;16.10;86.70;;;;;;5052772;28;20049;-83
2022/04/20 10:20:29;;;;;;;7.05;2.80;;;16.70;86.50;;;;;;5051965;28;20094;-83
2022/04/20 10:22:57;;;;;;;8.80;2.78;;;16.30;85.70;;;;;;5052383;28;20403;-83
2022/04/20 10:25:23;;;;;;;8.35;2.88;;;16.40;84.70;;;;;;5022800;28;20056;-85
2022/04/20 10:27:58;;;;;;;9.35;3.15;;;16.40;83.60;;;;;;5034196;28;20072;-85
2022/04/20 10:30:45;;;;;;;9.13;3.42;;;16.40;79.50;;;;;;5038021;28;20079;-82
2022/04/20 10:33:23;;;;;;;7.55;2.90;;;16.40;81.60;;;;;;5034022;28;20041;-83
2022/04/20 10:35:59;;;;;;;7.90;2.80;;;16.50;82.10;;;;;;5028829;28;20060;-83
2022/04/20 10:38:27;;;;;;;10.20;3.30;;;16.70;80.30;;;;;;5019674;28;20597;-83
2022/04/20 10:41:02;;;;;;;7.15;3.05;;;16.80;81.60;;;;;;5027004;28;20133;-83
2022/04/20 10:43:29;;;;;;;7.30;2.72;;;17.00;79.50;;;;;;5027862;28;20052;-83
2022/04/20 10:46:06;;;;;;;8.13;2.92;;;17.10;80.30;;;;;;5027299;28;20041;-83
2022/04/20 10:49:15;;;;;;;7.47;2.75;;;17.20;78.30;;;;;;5037112;28;20144;-83
2022/04/20 10:51:46;;;;;;;7.85;3.15;;;17.40;77.80;;;;;;5017833;28;20508;-84
2022/04/20 10:54:35;;;;;;;7.65;2.95;;;17.70;78.80;;;;;;5039927;28;20037;-84
2022/04/20 10:57:11;;;;;;;8.02;2.63;;;17.60;77.60;;;;;;5053751;28;20052;-85
2022/04/20 10:59:39;;;;;;;7.75;2.90;;;18.50;77.80;;;;;;5034572;28;20335;-85
2022/04/20 11:02:07;;;;;;;8.65;2.90;;;18.10;76.80;;;;;;5051890;28;20544;-85
2022/04/20 11:04:39;;;;;;;8.38;2.60;;;18.50;77.20;;;;;;5052338;28;20072;-85
2022/04/20 11:07:06;;;;;;;9.93;3.10;;;18.30;76.40;;;;;;5034694;28;20049;-85
2022/04/20 11:09:48;;;;;;;8.02;2.90;;;18.70;76.20;;;;;;5051888;28;20080;-85
2022/04/20 11:18:38;;;;;;;8.02;3.08;;;18.30;73.70;;;;;;5036009;28;20792;-88
2022/04/20 11:21:04;;;;;;;8.02;2.80;;;18.30;72.70;;;;;;5039516;28;20040;-86
2022/04/20 11:24:06;;;;;;;8.65;2.88;;;18.30;73.40;;;;;;5056319;22;20061;-87
2022/04/20 11:26:49;;;;;;;8.45;2.78;;;18.60;71.50;;;;;;5044112;28;20551;-86
2022/04/20 11:29:16;;;;;;;7.20;2.90;;;18.70;72.60;;;;;;5061505;28;20090;-86
2022/04/20 11:31:58;;;;;;;7.25;2.65;;;18.80;72.80;;;;;;5046855;28;20555;-86
2022/04/20 11:34:41;;;;;;;7.50;2.60;;;18.80;71.60;;;;;;5047844;28;20049;-87
2022/04/20 11:37:18;;;;;;;7.88;2.50;;;18.60;70.20;;;;;;5063597;28;20041;-87
2022/04/20 11:40:00;;;;;;;10.68;2.60;;;18.00;67.90;;;;;;5045260;28;20040;-87
2022/04/20 11:42:26;;;;;;;8.65;2.75;;;17.80;66.30;;;;;;5047414;28;20509;-86
2022/04/20 11:44:52;;;;;;;8.88;2.83;;;17.90;68.40;;;;;;5065242;28;20098;-86
2022/04/20 11:47:29;;;;;;;7.38;2.75;;;18.20;69.00;;;;;;5081819;23;20025;-86
2022/04/20 11:49:56;;;;;;;7.85;3.10;;;17.90;66.90;;;;;;5064619;28;20076;-86
2022/04/20 11:52:26;;;;;;;7.20;2.92;;;17.80;68.50;;;;;;5065440;28;20033;-86
2022/04/20 11:55:07;;;;;;;9.40;3.00;;;18.10;67.90;;;;;;5044705;28;20048;-87
2022/04/20 11:57:45;;;;;;;8.75;3.20;;;18.50;68.00;;;;;;5049015;28;20476;-86
2022/04/20 12:00:21;;;;;;;8.85;3.30;;;18.70;67.20;;;;;;5066231;28;20043;-87
2022/04/20 12:02:52;;;;;;;8.60;3.30;;;19.00;68.20;;;;;;5047990;28;20429;-87
2022/04/20 12:05:36;;;;;;;7.93;2.90;;;18.70;68.00;;;;;;5064526;28;20067;-87
2022/04/20 12:08:09;;;;;;;7.90;3.13;;;19.00;66.80;;;;;;5045207;28;20036;-87
2022/04/20 12:10:38;;;;;;;8.10;3.10;;;18.70;67.90;;;;;;5063402;28;20124;-86
2022/04/20 12:15:39;;;;;;;7.80;3.30;;;19.20;68.60;;;;;;5090649;22;20545;-86
2022/04/20 12:18:18;;;;;;;8.05;3.30;;;19.40;68.10;;;;;;5066772;28;20048;-89
2022/04/20 12:21:00;;;;;;;8.90;3.50;;;20.40;68.70;;;;;;5067580;28;20087;-86
2022/04/20 12:23:46;;;;;;;8.65;3.72;;;19.30;65.90;;;;;;5067411;28;20044;-86
2022/04/20 12:26:14;;;;;;;8.30;3.67;;;19.30;67.80;;;;;;5063723;28;20486;-86
2022/04/20 12:28:58;;;;;;;9.85;4.00;;;19.70;68.60;;;;;;5083588;28;20502;-87
2022/04/20 12:31:37;;;;;;;10.30;3.75;;;19.00;67.00;;;;;;5084645;28;20032;-87
2022/04/20 12:34:17;;;;;;;8.77;3.92;;;19.60;68.00;;;;;;5067642;28;20052;-87
2022/04/20 12:36:58;;;;;;;9.40;4.07;;;18.80;68.00;;;;;;5064868;28;20078;-86
2022/04/20 12:39:35;;;;;;;8.48;3.88;;;19.00;68.70;;;;;;5066250;28;20084;-88
2022/04/20 12:42:17;;;;;;;8.82;4.18;;;18.70;68.70;;;;;;5064333;28;20044;-88
2022/04/20 12:44:47;;;;;;;9.13;4.13;;;19.20;69.40;;;;;;5083232;28;20039;-88
2022/04/20 12:47:20;;;;;;;9.15;4.10;;;19.10;68.90;;;;;;5082889;28;20368;-88
2022/04/20 12:49:45;;;;;;;9.20;4.20;;;20.00;69.50;;;;;;5065202;28;20048;-87
2022/04/20 12:52:25;;;;;;;8.77;3.88;;;19.60;69.50;;;;;;5065138;28;20063;-87
2022/04/20 12:54:59;;;;;;;11.68;4.35;;;20.20;69.80;;;;;;5083323;28;20036;-87
2022/04/20 13:03:31;;;;;;;9.82;4.35;;;20.00;69.70;;;;;;5064735;28;20186;-85
2022/04/20 13:06:10;;;;;;;10.20;4.15;;;20.10;69.80;;;;;;5082715;28;20056;-88
2022/04/20 13:08:46;;;;;;;9.55;4.18;;;20.50;69.70;;;;;;5064308;28;20403;-88
2022/04/20 13:11:18;;;;;;;10.05;4.10;;;20.50;69.00;;;;;;5083546;28;20040;-87
2022/04/20 13:13:47;;;;;;;10.45;4.45;;;21.00;69.00;;;;;;5091157;28;20101;-86
2022/04/20 13:16:20;;;;;;;13.30;4.72;;;21.10;70.10;;;;;;5076568;28;20070;-83
2022/04/20 13:18:54;;;;;;;10.68;4.65;;;20.90;69.70;;;;;;5093587;28;20051;-83
2022/04/20 13:21:20;;;;;;;9.77;4.20;;;20.60;70.40;;;;;;5094272;28;20043;-83
2022/04/20 13:23:49;;;;;;;9.57;4.30;;;19.40;69.50;;;;;;5086697;28;20400;-86
2022/04/20 13:29:22;;;;;;;11.85;4.40;;;20.60;70.20;;;;;;5083291;28;20460;-85
2022/04/20 13:31:48;;;;;;;9.27;4.20;;;20.50;68.90;;;;;;5065843;28;20403;-86
2022/04/20 13:34:14;;;;;;;9.50;4.50;;;20.30;68.90;;;;;;5064342;28;20040;-85
2022/04/20 13:36:40;;;;;;;10.00;4.80;;;20.90;69.10;;;;;;5063518;28;20044;-86
2022/04/20 13:39:12;;;;;;;9.50;4.30;;;20.40;68.90;;;;;;5082983;28;20047;-86
2022/04/20 13:41:38;;;;;;;9.05;4.10;;;19.50;67.90;;;;;;5081742;28;20484;-86
2022/04/20 13:44:04;;;;;;;9.25;3.92;;;20.80;69.40;;;;;;5071667;28;20139;-85
2022/04/20 13:46:44;;;;;;;9.18;3.88;;;20.80;69.00;;;;;;5075298;28;20201;-83
2022/04/20 13:49:18;;;;;;;10.50;3.88;;;21.80;68.40;;;;;;5075260;28;20113;-86
2022/04/20 13:52:02;;;;;;;9.75;4.00;;;20.90;67.80;;;;;;5092145;28;20127;-87